Terminal Aerodrome Forecast
Issued by NWS Missoula, MT

Home | Current Version | Previous Version | Text Only | Print | Product List | Glossary On
Versions: 1 2 3 4 5 6 7 8 9 10 11 12 13 14 15 16 17
231
FTUS45 KMSO 062324
TAFGPI
TAF
KGPI 062324Z 0700/0724 27015G25KT P6SM BKN060
     FM070100 21010KT P6SM SCT005 OVC050
     FM071000 19003KT P6SM VCFG SCT005=

USA.gov is the U.S. government's official web portal to all federal, state and local government web resources and services.